UVA9803 UAIT-UACC
Flight info
| Callsign | UVA9803 |
|---|---|
| Flight time | 1h 25m |
| Altitude | 37000 |
| Route | GOBOR1C GOBOR M168 TIMKA P178 AMIGU M75 KOKON KOKON4N |
| Aircraft | A320/M-SDE3FGHIRWY/LB1 |
Departure
| Time | 2026-05-06 04:08 |
|---|---|
| Airport | Hazrat Sultan International Airport (UAIT) |
Arrival
| Time | 2026-05-06 05:33 |
|---|---|
| Airport | Nursultan Nazarbayev International Airport (UACC) |
| Time | Latitude | Longitude | Altitude | Speed | Heading |
|---|---|---|---|---|---|
| 2026-05-06 03:39 | 43.31534 | 68.54784 | 994 ft | 0 kts | 325° |
| 2026-05-06 03:57 | 43.31526 | 68.54792 | 996 ft | 4 kts | 324° |
| 2026-05-06 03:57 | 43.31505 | 68.54814 | 994 ft | 4 kts | 319° |
| 2026-05-06 03:58 | 43.31486 | 68.54840 | 994 ft | 4 kts | 304° |
| 2026-05-06 03:58 | 43.31476 | 68.54867 | 994 ft | 1 kts | 279° |
| 2026-05-06 04:00 | 43.31477 | 68.54860 | 994 ft | 0 kts | 278° |
| 2026-05-06 04:01 | 43.31477 | 68.54857 | 995 ft | 1 kts | 270° |
| 2026-05-06 04:01 | 43.31465 | 68.54844 | 996 ft | 3 kts | 207° |
| 2026-05-06 04:01 | 43.31439 | 68.54831 | 996 ft | 5 kts | 199° |
| 2026-05-06 04:02 | 43.31400 | 68.54807 | 996 ft | 7 kts | 202° |
| 2026-05-06 04:02 | 43.31348 | 68.54822 | 996 ft | 9 kts | 149° |
| 2026-05-06 04:02 | 43.31291 | 68.54875 | 1000 ft | 11 kts | 146° |
| 2026-05-06 04:02 | 43.31225 | 68.54936 | 997 ft | 11 kts | 146° |
| 2026-05-06 04:03 | 43.31218 | 68.54943 | 997 ft | 0 kts | 146° |
| 2026-05-06 04:03 | 43.31216 | 68.54944 | 997 ft | 1 kts | 146° |
| 2026-05-06 04:03 | 43.31201 | 68.54958 | 996 ft | 5 kts | 146° |
| 2026-05-06 04:03 | 43.31162 | 68.54994 | 997 ft | 7 kts | 146° |
| 2026-05-06 04:04 | 43.31114 | 68.55011 | 999 ft | 8 kts | 193° |
| 2026-05-06 04:04 | 43.31060 | 68.54935 | 999 ft | 15 kts | 235° |
| 2026-05-06 04:04 | 43.30987 | 68.54790 | 996 ft | 22 kts | 235° |
| 2026-05-06 04:04 | 43.30888 | 68.54593 | 994 ft | 28 kts | 237° |
| 2026-05-06 04:05 | 43.30776 | 68.54366 | 995 ft | 29 kts | 235° |
| 2026-05-06 04:05 | 43.30660 | 68.54133 | 999 ft | 29 kts | 235° |
| 2026-05-06 04:05 | 43.30542 | 68.53896 | 1000 ft | 30 kts | 236° |
| 2026-05-06 04:05 | 43.30443 | 68.53697 | 998 ft | 22 kts | 236° |
| 2026-05-06 04:06 | 43.30382 | 68.53543 | 1001 ft | 15 kts | 263° |
| 2026-05-06 04:06 | 43.30374 | 68.53422 | 1001 ft | 13 kts | 246° |
| 2026-05-06 04:06 | 43.30322 | 68.53363 | 998 ft | 9 kts | 180° |
| 2026-05-06 04:06 | 43.30303 | 68.53414 | 996 ft | 8 kts | 71° |
| 2026-05-06 04:07 | 43.30317 | 68.53447 | 1000 ft | 0 kts | 55° |
| 2026-05-06 04:07 | 43.30346 | 68.53504 | 1001 ft | 33 kts | 56° |
| 2026-05-06 04:07 | 43.30612 | 68.54039 | 999 ft | 100 kts | 55° |
| 2026-05-06 04:07 | 43.31104 | 68.55027 | 1003 ft | 148 kts | 55° |
| 2026-05-06 04:08 | 43.31748 | 68.56341 | 1180 ft | 174 kts | 58° |
| 2026-05-06 04:08 | 43.32430 | 68.57712 | 1864 ft | 173 kts | 57° |
| 2026-05-06 04:08 | 43.33108 | 68.59071 | 2560 ft | 172 kts | 57° |
| 2026-05-06 04:08 | 43.33810 | 68.60477 | 3004 ft | 188 kts | 56° |
| 2026-05-06 04:09 | 43.34590 | 68.62045 | 3245 ft | 210 kts | 56° |
| 2026-05-06 04:09 | 43.35462 | 68.63801 | 3520 ft | 236 kts | 56° |
| 2026-05-06 04:09 | 43.36434 | 68.65762 | 3962 ft | 259 kts | 56° |
| 2026-05-06 04:09 | 43.37468 | 68.67851 | 4765 ft | 268 kts | 56° |
| 2026-05-06 04:10 | 43.38523 | 68.69981 | 5648 ft | 271 kts | 56° |
| 2026-05-06 04:10 | 43.39594 | 68.72089 | 6570 ft | 274 kts | 51° |
| 2026-05-06 04:10 | 43.41092 | 68.73729 | 7370 ft | 280 kts | 26° |
| 2026-05-06 04:10 | 43.42979 | 68.74440 | 8210 ft | 285 kts | 4° |
| 2026-05-06 04:11 | 43.44959 | 68.74177 | 9045 ft | 290 kts | 343° |
| 2026-05-06 04:11 | 43.46763 | 68.72936 | 9880 ft | 293 kts | 321° |
| 2026-05-06 04:11 | 43.48121 | 68.70841 | 10634 ft | 296 kts | 300° |
| 2026-05-06 04:11 | 43.48818 | 68.68186 | 11403 ft | 298 kts | 279° |
| 2026-05-06 04:12 | 43.49132 | 68.65362 | 12200 ft | 299 kts | 278° |
| 2026-05-06 04:12 | 43.49440 | 68.62520 | 12978 ft | 301 kts | 278° |
| 2026-05-06 04:12 | 43.49752 | 68.59654 | 13747 ft | 304 kts | 279° |
| 2026-05-06 04:12 | 43.50069 | 68.56764 | 14430 ft | 307 kts | 279° |
| 2026-05-06 04:13 | 43.50388 | 68.53848 | 15101 ft | 309 kts | 279° |
| 2026-05-06 04:13 | 43.50709 | 68.50908 | 15770 ft | 312 kts | 279° |
| 2026-05-06 04:13 | 43.51033 | 68.47948 | 16428 ft | 314 kts | 279° |
| 2026-05-06 04:13 | 43.51560 | 68.45023 | 17069 ft | 316 kts | 293° |
| 2026-05-06 04:14 | 43.52205 | 68.43228 | 17499 ft | 317 kts | 303° |
| 2026-05-06 04:14 | 43.54165 | 68.40152 | 17900 ft | 335 kts | 322° |
| 2026-05-06 04:14 | 43.56179 | 68.38379 | 18034 ft | 353 kts | 329° |
| 2026-05-06 04:14 | 43.58322 | 68.36611 | 18359 ft | 363 kts | 328° |
| 2026-05-06 04:15 | 43.60502 | 68.34802 | 18844 ft | 368 kts | 328° |
| 2026-05-06 04:15 | 43.62763 | 68.33123 | 19370 ft | 371 kts | 336° |
| 2026-05-06 04:15 | 43.64417 | 68.32321 | 19740 ft | 374 kts | 343° |
| 2026-05-06 04:15 | 43.66968 | 68.31708 | 20279 ft | 378 kts | 353° |
| 2026-05-06 04:16 | 43.69601 | 68.31359 | 20793 ft | 381 kts | 353° |
| 2026-05-06 04:16 | 43.72249 | 68.31003 | 21317 ft | 384 kts | 352° |
| 2026-05-06 04:16 | 43.74920 | 68.30644 | 21823 ft | 387 kts | 352° |
| 2026-05-06 04:16 | 43.77609 | 68.30281 | 22333 ft | 390 kts | 352° |
| 2026-05-06 04:17 | 43.80318 | 68.29914 | 22834 ft | 393 kts | 352° |
| 2026-05-06 04:17 | 43.83052 | 68.29542 | 23327 ft | 396 kts | 352° |
| 2026-05-06 04:17 | 43.85805 | 68.29167 | 23784 ft | 399 kts | 352° |
| 2026-05-06 04:17 | 43.88572 | 68.28791 | 24185 ft | 401 kts | 352° |
| 2026-05-06 04:18 | 43.91319 | 68.28421 | 24601 ft | 403 kts | 352° |
| 2026-05-06 04:18 | 43.94114 | 68.28046 | 25043 ft | 404 kts | 352° |
| 2026-05-06 04:18 | 43.96920 | 68.27666 | 25453 ft | 406 kts | 352° |
| 2026-05-06 04:18 | 43.99735 | 68.27283 | 25857 ft | 407 kts | 352° |
| 2026-05-06 04:19 | 44.02566 | 68.26898 | 26271 ft | 409 kts | 352° |
| 2026-05-06 04:19 | 44.05405 | 68.26513 | 26685 ft | 411 kts | 352° |
| 2026-05-06 04:19 | 44.08258 | 68.26126 | 27085 ft | 413 kts | 352° |
| 2026-05-06 04:19 | 44.11119 | 68.25734 | 27480 ft | 414 kts | 352° |
| 2026-05-06 04:20 | 44.14007 | 68.25478 | 27874 ft | 418 kts | 358° |
| 2026-05-06 04:20 | 44.16919 | 68.25843 | 28275 ft | 423 kts | 6° |
| 2026-05-06 04:20 | 44.19833 | 68.26460 | 28670 ft | 424 kts | 6° |
| 2026-05-06 04:20 | 44.22761 | 68.27077 | 29080 ft | 426 kts | 6° |
| 2026-05-06 04:21 | 44.25700 | 68.27687 | 29483 ft | 428 kts | 5° |
| 2026-05-06 04:21 | 44.28611 | 68.28286 | 29877 ft | 430 kts | 5° |
| 2026-05-06 04:21 | 44.31583 | 68.28898 | 30234 ft | 432 kts | 6° |
| 2026-05-06 04:21 | 44.34559 | 68.29516 | 30569 ft | 433 kts | 5° |
| 2026-05-06 04:22 | 44.37544 | 68.30138 | 30896 ft | 435 kts | 5° |
| 2026-05-06 04:22 | 44.40544 | 68.30765 | 31231 ft | 436 kts | 5° |
| 2026-05-06 04:22 | 44.43550 | 68.31394 | 31618 ft | 436 kts | 5° |
| 2026-05-06 04:23 | 44.49524 | 68.32655 | 32602 ft | 432 kts | 5° |
| 2026-05-06 04:23 | 44.52491 | 68.33280 | 33097 ft | 430 kts | 5° |
| 2026-05-06 04:23 | 44.55444 | 68.33901 | 33582 ft | 428 kts | 5° |
| 2026-05-06 04:23 | 44.58386 | 68.34514 | 34078 ft | 426 kts | 5° |
| 2026-05-06 04:24 | 44.61311 | 68.35122 | 34498 ft | 424 kts | 5° |
| 2026-05-06 04:24 | 44.64199 | 68.35725 | 34849 ft | 424 kts | 5° |
| 2026-05-06 04:24 | 44.67124 | 68.36337 | 35157 ft | 425 kts | 5° |
| 2026-05-06 04:24 | 44.70051 | 68.36947 | 35470 ft | 426 kts | 5° |
| 2026-05-06 04:25 | 44.72986 | 68.37558 | 35757 ft | 427 kts | 5° |
| 2026-05-06 04:25 | 44.75923 | 68.38174 | 36053 ft | 427 kts | 5° |
| 2026-05-06 04:25 | 44.78866 | 68.38798 | 36330 ft | 428 kts | 5° |
| 2026-05-06 04:25 | 44.81814 | 68.39423 | 36607 ft | 429 kts | 5° |
| 2026-05-06 04:26 | 44.84770 | 68.40053 | 36880 ft | 430 kts | 5° |
| 2026-05-06 04:26 | 44.87734 | 68.40688 | 37034 ft | 431 kts | 5° |
| 2026-05-06 04:26 | 44.90704 | 68.41321 | 37063 ft | 432 kts | 5° |
| 2026-05-06 04:27 | 44.96657 | 68.42578 | 37058 ft | 433 kts | 5° |
| 2026-05-06 04:27 | 45.02612 | 68.43840 | 37065 ft | 433 kts | 5° |
| 2026-05-06 04:28 | 45.08577 | 68.45117 | 37067 ft | 434 kts | 5° |
| 2026-05-06 04:28 | 45.14508 | 68.46389 | 37070 ft | 434 kts | 5° |
| 2026-05-06 04:29 | 45.20487 | 68.47672 | 37081 ft | 435 kts | 5° |
| 2026-05-06 04:29 | 45.26476 | 68.48950 | 37086 ft | 436 kts | 5° |
| 2026-05-06 04:30 | 45.32475 | 68.50233 | 37086 ft | 436 kts | 5° |
| 2026-05-06 04:30 | 45.38488 | 68.51539 | 37095 ft | 437 kts | 5° |
| 2026-05-06 04:31 | 45.44499 | 68.52850 | 37094 ft | 437 kts | 5° |
| 2026-05-06 04:31 | 45.50516 | 68.54149 | 37093 ft | 438 kts | 5° |
| 2026-05-06 04:32 | 45.56544 | 68.55450 | 37098 ft | 438 kts | 5° |
| 2026-05-06 04:32 | 45.62539 | 68.56748 | 37099 ft | 438 kts | 5° |
| 2026-05-06 04:33 | 45.68574 | 68.58056 | 37102 ft | 439 kts | 5° |
| 2026-05-06 04:33 | 45.74616 | 68.59383 | 37103 ft | 439 kts | 5° |
| 2026-05-06 04:34 | 45.80660 | 68.60714 | 37105 ft | 440 kts | 5° |
| 2026-05-06 04:34 | 45.86714 | 68.62043 | 37109 ft | 440 kts | 5° |
| 2026-05-06 04:35 | 45.92771 | 68.63368 | 37105 ft | 441 kts | 6° |
| 2026-05-06 04:35 | 45.98837 | 68.64700 | 37108 ft | 441 kts | 6° |
| 2026-05-06 04:36 | 46.04863 | 68.66039 | 37104 ft | 441 kts | 6° |
| 2026-05-06 04:36 | 46.10938 | 68.67385 | 37107 ft | 442 kts | 6° |
| 2026-05-06 04:37 | 46.17015 | 68.68741 | 37109 ft | 442 kts | 6° |
| 2026-05-06 04:37 | 46.23099 | 68.70099 | 37106 ft | 442 kts | 6° |
| 2026-05-06 04:38 | 46.29188 | 68.71463 | 37107 ft | 443 kts | 6° |
| 2026-05-06 04:38 | 46.35280 | 68.72821 | 37109 ft | 443 kts | 6° |
| 2026-05-06 04:39 | 46.41383 | 68.74167 | 37106 ft | 444 kts | 6° |
| 2026-05-06 04:39 | 46.47489 | 68.75541 | 37115 ft | 444 kts | 6° |
| 2026-05-06 04:40 | 46.53600 | 68.76927 | 37108 ft | 444 kts | 6° |
| 2026-05-06 04:40 | 46.59672 | 68.78306 | 37107 ft | 445 kts | 6° |
| 2026-05-06 04:41 | 46.65789 | 68.79699 | 37105 ft | 445 kts | 6° |
| 2026-05-06 04:41 | 46.71914 | 68.81078 | 37107 ft | 445 kts | 6° |
| 2026-05-06 04:42 | 46.78043 | 68.82473 | 37105 ft | 446 kts | 6° |
| 2026-05-06 04:42 | 46.84176 | 68.83869 | 37107 ft | 446 kts | 6° |
| 2026-05-06 04:43 | 46.90316 | 68.85264 | 37107 ft | 447 kts | 6° |
| 2026-05-06 04:43 | 46.96462 | 68.86669 | 37109 ft | 447 kts | 6° |
| 2026-05-06 04:44 | 47.02617 | 68.88079 | 37107 ft | 447 kts | 6° |
| 2026-05-06 04:44 | 47.08765 | 68.89494 | 37103 ft | 448 kts | 6° |
| 2026-05-06 04:45 | 47.14895 | 68.90918 | 37086 ft | 442 kts | 5° |
| 2026-05-06 04:45 | 47.20900 | 68.92306 | 37107 ft | 439 kts | 5° |
| 2026-05-06 04:46 | 47.26923 | 68.93689 | 37116 ft | 438 kts | 5° |
| 2026-05-06 04:46 | 47.32940 | 68.95082 | 37114 ft | 437 kts | 5° |
| 2026-05-06 04:47 | 47.38943 | 68.96492 | 37118 ft | 437 kts | 5° |
| 2026-05-06 04:47 | 47.44949 | 68.97894 | 37114 ft | 437 kts | 5° |
| 2026-05-06 04:48 | 47.50957 | 68.99292 | 37111 ft | 437 kts | 5° |
| 2026-05-06 04:48 | 47.56964 | 69.00695 | 37113 ft | 437 kts | 5° |
| 2026-05-06 04:49 | 47.62938 | 69.02087 | 37116 ft | 437 kts | 5° |
| 2026-05-06 04:49 | 47.68953 | 69.03492 | 37114 ft | 437 kts | 5° |
| 2026-05-06 04:50 | 47.74968 | 69.04908 | 37113 ft | 438 kts | 5° |
| 2026-05-06 04:50 | 47.80984 | 69.06343 | 37109 ft | 438 kts | 5° |
| 2026-05-06 04:51 | 47.87005 | 69.07778 | 37113 ft | 438 kts | 5° |
| 2026-05-06 04:51 | 47.93032 | 69.09205 | 37116 ft | 438 kts | 5° |
| 2026-05-06 04:52 | 47.99059 | 69.10632 | 37114 ft | 439 kts | 5° |
| 2026-05-06 04:52 | 48.05049 | 69.12061 | 37105 ft | 439 kts | 5° |
| 2026-05-06 04:53 | 48.11081 | 69.13510 | 37107 ft | 439 kts | 5° |
| 2026-05-06 04:53 | 48.17119 | 69.14949 | 37109 ft | 439 kts | 5° |
| 2026-05-06 04:54 | 48.23158 | 69.16401 | 37114 ft | 440 kts | 5° |
| 2026-05-06 04:54 | 48.29201 | 69.17866 | 37115 ft | 440 kts | 5° |
| 2026-05-06 04:55 | 48.35247 | 69.19323 | 37118 ft | 440 kts | 5° |
| 2026-05-06 04:55 | 48.41291 | 69.20776 | 37111 ft | 440 kts | 5° |
| 2026-05-06 04:56 | 48.47338 | 69.22243 | 37115 ft | 440 kts | 5° |
| 2026-05-06 04:56 | 48.53347 | 69.23707 | 37112 ft | 440 kts | 5° |
| 2026-05-06 04:57 | 48.59398 | 69.25182 | 37112 ft | 440 kts | 5° |
| 2026-05-06 04:57 | 48.65465 | 69.26664 | 37108 ft | 441 kts | 5° |
| 2026-05-06 04:58 | 48.71515 | 69.28143 | 37108 ft | 441 kts | 5° |
| 2026-05-06 04:58 | 48.77530 | 69.29616 | 37107 ft | 441 kts | 5° |
| 2026-05-06 04:59 | 48.83587 | 69.31114 | 37107 ft | 441 kts | 5° |
| 2026-05-06 04:59 | 48.89643 | 69.32611 | 37111 ft | 441 kts | 5° |
| 2026-05-06 05:00 | 48.95699 | 69.34111 | 37106 ft | 441 kts | 5° |
| 2026-05-06 05:00 | 49.01756 | 69.35620 | 37105 ft | 441 kts | 5° |
| 2026-05-06 05:01 | 49.07804 | 69.37115 | 37101 ft | 441 kts | 5° |
| 2026-05-06 05:01 | 49.13857 | 69.38614 | 37107 ft | 441 kts | 5° |
| 2026-05-06 05:02 | 49.19907 | 69.40126 | 37097 ft | 441 kts | 4° |
| 2026-05-06 05:02 | 49.25894 | 69.41893 | 37093 ft | 445 kts | 13° |
| 2026-05-06 05:03 | 49.31489 | 69.46129 | 37094 ft | 456 kts | 31° |
| 2026-05-06 05:03 | 49.36619 | 69.51880 | 37099 ft | 457 kts | 32° |
| 2026-05-06 05:04 | 49.41753 | 69.57628 | 37099 ft | 457 kts | 32° |
| 2026-05-06 05:04 | 49.46883 | 69.63411 | 36751 ft | 457 kts | 32° |
| 2026-05-06 05:04 | 49.49448 | 69.66311 | 36494 ft | 457 kts | 32° |
| 2026-05-06 05:05 | 49.52007 | 69.69203 | 36233 ft | 456 kts | 32° |
| 2026-05-06 05:05 | 49.54566 | 69.72100 | 35972 ft | 457 kts | 32° |
| 2026-05-06 05:05 | 49.57122 | 69.74997 | 35726 ft | 457 kts | 32° |
| 2026-05-06 05:05 | 49.59681 | 69.77898 | 35477 ft | 457 kts | 32° |
| 2026-05-06 05:06 | 49.62239 | 69.80805 | 35083 ft | 458 kts | 32° |
| 2026-05-06 05:06 | 49.64814 | 69.83735 | 34423 ft | 460 kts | 33° |
| 2026-05-06 05:06 | 49.67339 | 69.86617 | 33931 ft | 457 kts | 33° |
| 2026-05-06 05:06 | 49.69885 | 69.89529 | 33379 ft | 454 kts | 33° |
| 2026-05-06 05:07 | 49.72413 | 69.92422 | 32864 ft | 450 kts | 32° |
| 2026-05-06 05:07 | 49.74920 | 69.95295 | 32341 ft | 447 kts | 32° |
| 2026-05-06 05:07 | 49.77409 | 69.98153 | 31818 ft | 444 kts | 32° |
| 2026-05-06 05:07 | 49.79883 | 70.00993 | 31291 ft | 441 kts | 32° |
| 2026-05-06 05:08 | 49.82340 | 70.03808 | 30777 ft | 438 kts | 32° |
| 2026-05-06 05:08 | 49.84785 | 70.06612 | 30256 ft | 436 kts | 32° |
| 2026-05-06 05:08 | 49.87213 | 70.09400 | 29702 ft | 433 kts | 31° |
| 2026-05-06 05:08 | 49.89615 | 70.12166 | 29214 ft | 428 kts | 32° |
| 2026-05-06 05:09 | 49.91991 | 70.14910 | 28717 ft | 423 kts | 32° |
| 2026-05-06 05:09 | 49.94342 | 70.17631 | 28244 ft | 419 kts | 32° |
| 2026-05-06 05:09 | 49.96664 | 70.20324 | 27777 ft | 415 kts | 32° |
| 2026-05-06 05:09 | 49.98972 | 70.23005 | 27326 ft | 412 kts | 32° |
| 2026-05-06 05:10 | 50.01257 | 70.25660 | 26883 ft | 409 kts | 32° |
| 2026-05-06 05:10 | 50.03521 | 70.28296 | 26479 ft | 405 kts | 32° |
| 2026-05-06 05:10 | 50.05737 | 70.30876 | 26083 ft | 402 kts | 32° |
| 2026-05-06 05:10 | 50.07971 | 70.33478 | 25680 ft | 399 kts | 31° |
| 2026-05-06 05:11 | 50.10186 | 70.36059 | 25285 ft | 396 kts | 32° |
| 2026-05-06 05:11 | 50.12386 | 70.38630 | 24875 ft | 394 kts | 32° |
| 2026-05-06 05:11 | 50.14570 | 70.41189 | 24472 ft | 392 kts | 32° |
| 2026-05-06 05:11 | 50.16745 | 70.43740 | 24077 ft | 390 kts | 32° |
| 2026-05-06 05:12 | 50.18914 | 70.46281 | 23721 ft | 391 kts | 32° |
| 2026-05-06 05:12 | 50.21092 | 70.48831 | 23312 ft | 391 kts | 32° |
| 2026-05-06 05:12 | 50.23264 | 70.51378 | 22949 ft | 390 kts | 32° |
| 2026-05-06 05:12 | 50.25427 | 70.53922 | 22589 ft | 388 kts | 32° |
| 2026-05-06 05:13 | 50.27576 | 70.56456 | 22230 ft | 386 kts | 32° |
| 2026-05-06 05:13 | 50.29714 | 70.58977 | 21874 ft | 384 kts | 32° |
| 2026-05-06 05:13 | 50.31838 | 70.61490 | 21517 ft | 382 kts | 32° |
| 2026-05-06 05:13 | 50.33921 | 70.63961 | 21169 ft | 380 kts | 32° |
| 2026-05-06 05:14 | 50.36022 | 70.66458 | 20824 ft | 378 kts | 32° |
| 2026-05-06 05:14 | 50.38113 | 70.68940 | 20469 ft | 376 kts | 32° |
| 2026-05-06 05:14 | 50.40192 | 70.71404 | 20120 ft | 374 kts | 32° |
| 2026-05-06 05:14 | 50.42259 | 70.73853 | 19784 ft | 372 kts | 32° |
| 2026-05-06 05:15 | 50.44317 | 70.76295 | 19441 ft | 370 kts | 32° |
| 2026-05-06 05:15 | 50.46361 | 70.78724 | 19093 ft | 368 kts | 33° |
| 2026-05-06 05:15 | 50.48397 | 70.81146 | 18755 ft | 366 kts | 33° |
| 2026-05-06 05:15 | 50.50421 | 70.83554 | 18413 ft | 364 kts | 33° |
| 2026-05-06 05:16 | 50.51758 | 70.85147 | 18162 ft | 363 kts | 33° |
| 2026-05-06 05:16 | 50.53761 | 70.87541 | 17822 ft | 361 kts | 33° |
| 2026-05-06 05:16 | 50.55754 | 70.89929 | 17485 ft | 359 kts | 33° |
| 2026-05-06 05:16 | 50.57736 | 70.92306 | 17152 ft | 357 kts | 33° |
| 2026-05-06 05:17 | 50.59712 | 70.94671 | 16827 ft | 356 kts | 33° |
| 2026-05-06 05:17 | 50.61679 | 70.97025 | 16495 ft | 354 kts | 33° |
| 2026-05-06 05:17 | 50.63633 | 70.99364 | 16165 ft | 352 kts | 33° |
| 2026-05-06 05:17 | 50.65578 | 71.01694 | 15825 ft | 350 kts | 33° |
| 2026-05-06 05:18 | 50.67515 | 71.04021 | 15518 ft | 349 kts | 33° |
| 2026-05-06 05:18 | 50.69440 | 71.06335 | 15192 ft | 347 kts | 33° |
| 2026-05-06 05:18 | 50.71333 | 71.08612 | 14877 ft | 346 kts | 33° |
| 2026-05-06 05:18 | 50.73238 | 71.10912 | 14557 ft | 344 kts | 33° |
| 2026-05-06 05:19 | 50.75134 | 71.13207 | 14242 ft | 343 kts | 33° |
| 2026-05-06 05:19 | 50.77022 | 71.15494 | 13920 ft | 341 kts | 33° |
| 2026-05-06 05:19 | 50.78907 | 71.17760 | 13580 ft | 340 kts | 33° |
| 2026-05-06 05:19 | 50.80788 | 71.20009 | 13265 ft | 338 kts | 33° |
| 2026-05-06 05:20 | 50.82663 | 71.22248 | 12952 ft | 336 kts | 33° |
| 2026-05-06 05:20 | 50.84524 | 71.24478 | 12637 ft | 335 kts | 33° |
| 2026-05-06 05:20 | 50.86381 | 71.26708 | 12325 ft | 334 kts | 33° |
| 2026-05-06 05:20 | 50.88224 | 71.28923 | 12013 ft | 332 kts | 33° |
| 2026-05-06 05:21 | 50.90062 | 71.31136 | 11705 ft | 331 kts | 33° |
| 2026-05-06 05:21 | 50.91889 | 71.33343 | 11402 ft | 330 kts | 33° |
| 2026-05-06 05:21 | 50.93708 | 71.35546 | 11094 ft | 328 kts | 33° |
| 2026-05-06 05:21 | 50.95523 | 71.37741 | 10703 ft | 329 kts | 33° |
| 2026-05-06 05:22 | 50.97313 | 71.39901 | 10388 ft | 326 kts | 33° |
| 2026-05-06 05:22 | 50.99032 | 71.42241 | 10122 ft | 326 kts | 44° |
| 2026-05-06 05:22 | 51.00364 | 71.45100 | 9958 ft | 322 kts | 58° |
| 2026-05-06 05:22 | 51.01256 | 71.48346 | 9666 ft | 321 kts | 69° |
| 2026-05-06 05:23 | 51.01979 | 71.51696 | 9319 ft | 320 kts | 69° |
| 2026-05-06 05:23 | 51.02700 | 71.55029 | 8971 ft | 319 kts | 69° |
| 2026-05-06 05:23 | 51.04139 | 71.61681 | 8265 ft | 318 kts | 69° |
| 2026-05-06 05:24 | 51.04852 | 71.64985 | 7946 ft | 315 kts | 69° |
| 2026-05-06 05:24 | 51.05564 | 71.68281 | 7644 ft | 314 kts | 69° |
| 2026-05-06 05:24 | 51.06272 | 71.71566 | 7307 ft | 313 kts | 70° |
| 2026-05-06 05:24 | 51.06972 | 71.74832 | 6946 ft | 311 kts | 69° |
| 2026-05-06 05:25 | 51.07666 | 71.78070 | 6544 ft | 309 kts | 69° |
| 2026-05-06 05:25 | 51.08360 | 71.81304 | 6221 ft | 308 kts | 70° |
| 2026-05-06 05:25 | 51.09098 | 71.84471 | 5922 ft | 303 kts | 60° |
| 2026-05-06 05:25 | 51.10472 | 71.86869 | 5643 ft | 289 kts | 25° |
| 2026-05-06 05:26 | 51.12296 | 71.87658 | 5413 ft | 270 kts | 351° |
| 2026-05-06 05:26 | 51.14033 | 71.86769 | 5198 ft | 257 kts | 325° |
| 2026-05-06 05:26 | 51.15440 | 71.85132 | 4990 ft | 251 kts | 312° |
| 2026-05-06 05:26 | 51.16628 | 71.83180 | 4922 ft | 240 kts | 310° |
| 2026-05-06 05:27 | 51.17782 | 71.81334 | 4865 ft | 230 kts | 311° |
| 2026-05-06 05:27 | 51.18826 | 71.79500 | 4770 ft | 217 kts | 299° |
| 2026-05-06 05:27 | 51.19380 | 71.77363 | 4688 ft | 205 kts | 279° |
| 2026-05-06 05:27 | 51.19392 | 71.75155 | 4615 ft | 197 kts | 260° |
| 2026-05-06 05:28 | 51.18912 | 71.73116 | 4543 ft | 199 kts | 241° |
| 2026-05-06 05:28 | 51.18007 | 71.71414 | 4462 ft | 203 kts | 229° |
| 2026-05-06 05:28 | 51.17013 | 71.69815 | 4384 ft | 203 kts | 230° |
| 2026-05-06 05:28 | 51.16015 | 71.68214 | 4314 ft | 204 kts | 229° |
| 2026-05-06 05:29 | 51.15035 | 71.66667 | 4247 ft | 196 kts | 229° |
| 2026-05-06 05:29 | 51.14078 | 71.65160 | 4093 ft | 192 kts | 228° |
| 2026-05-06 05:29 | 51.13140 | 71.63683 | 3882 ft | 185 kts | 228° |
| 2026-05-06 05:29 | 51.12258 | 71.62298 | 3650 ft | 172 kts | 228° |
| 2026-05-06 05:30 | 51.11437 | 71.61008 | 3438 ft | 159 kts | 228° |
| 2026-05-06 05:30 | 51.10673 | 71.59809 | 3226 ft | 150 kts | 227° |
| 2026-05-06 05:30 | 51.09957 | 71.58683 | 3038 ft | 141 kts | 227° |
| 2026-05-06 05:30 | 51.09263 | 71.57593 | 2842 ft | 139 kts | 228° |
| 2026-05-06 05:31 | 51.08575 | 71.56513 | 2660 ft | 140 kts | 227° |
| 2026-05-06 05:31 | 51.07879 | 71.55421 | 2475 ft | 141 kts | 227° |
| 2026-05-06 05:31 | 51.07180 | 71.54326 | 2288 ft | 141 kts | 228° |
| 2026-05-06 05:31 | 51.06485 | 71.53237 | 2086 ft | 140 kts | 228° |
| 2026-05-06 05:32 | 51.05798 | 71.52162 | 1894 ft | 141 kts | 227° |
| 2026-05-06 05:32 | 51.05103 | 71.51074 | 1697 ft | 139 kts | 227° |
| 2026-05-06 05:32 | 51.04412 | 71.49993 | 1506 ft | 140 kts | 227° |
| 2026-05-06 05:32 | 51.03721 | 71.48913 | 1313 ft | 139 kts | 226° |
| 2026-05-06 05:33 | 51.03034 | 71.47839 | 1170 ft | 134 kts | 225° |
| 2026-05-06 05:33 | 51.02586 | 71.47137 | 1170 ft | 31 kts | 224° |
| 2026-05-06 05:33 | 51.02507 | 71.46985 | 1171 ft | 16 kts | 261° |
| 2026-05-06 05:33 | 51.02570 | 71.46843 | 1167 ft | 17 kts | 315° |
| 2026-05-06 05:34 | 51.02654 | 71.46709 | 1166 ft | 15 kts | 314° |
| 2026-05-06 05:34 | 51.02706 | 71.46595 | 1166 ft | 12 kts | 281° |
| 2026-05-06 05:34 | 51.02697 | 71.46459 | 1169 ft | 10 kts | 260° |
| 2026-05-06 05:34 | 51.02664 | 71.46372 | 1170 ft | 9 kts | 225° |
| 2026-05-06 05:35 | 51.02615 | 71.46296 | 1168 ft | 11 kts | 224° |
| 2026-05-06 05:35 | 51.02600 | 71.46194 | 1170 ft | 8 kts | 310° |
| 2026-05-06 05:35 | 51.02621 | 71.46169 | 1169 ft | 0 kts | 324° |